Time;durP1;ratioP1;P1;durP2;ratioP2;P2;SDS_P1;SDS_P2;PMS_P1;PMS_P2;Temp;Humidity;BMP_temperature;BMP_pressure;BME280_temperature;BME280_humidity;BME280_pressure;Samples;Min_cycle;Max_cycle;Signal;HPM_P1;HPM_P2
2022/04/14 00:04:04;;;;;;;;;22.00;22.00;;;;;;;;2;234066262;234066262;-80
2022/04/14 00:13:05;;;;;;;;;20.50;20.50;;;;;;;;2;279081937;279081937;-80
2022/04/14 00:21:47;;;;;;;;;21.50;21.50;;;;;;;;2;234070832;234070832;-80
2022/04/14 00:30:48;;;;;;;;;21.00;20.50;;;;;;;;2;279080107;279080107;-79
2022/04/14 00:39:30;;;;;;;;;24.50;24.50;;;;;;;;2;234070191;234070191;-79
2022/04/14 00:48:31;;;;;;;;;22.00;22.00;;;;;;;;2;279080586;279080586;-79
2022/04/14 00:57:14;;;;;;;;;17.00;17.00;;;;;;;;2;234070328;234070328;-79
2022/04/14 01:06:15;;;;;;;;;25.00;25.00;;;;;;;;2;279082540;279082540;-79
2022/04/14 01:14:58;;;;;;;;;25.50;25.00;;;;;;;;2;234066047;234066047;-79
2022/04/14 01:23:58;;;;;;;;;23.00;23.00;;;;;;;;2;279080568;279080568;-79
2022/04/14 01:32:40;;;;;;;;;28.50;28.50;;;;;;;;2;234068644;234068644;-79
2022/04/14 01:41:42;;;;;;;;;30.50;29.50;;;;;;;;2;279078724;279078724;-80
2022/04/14 01:50:24;;;;;;;;;12.50;12.50;;;;;;;;2;234071924;234071924;-80
2022/04/14 02:01:17;;;;;;;;;22.50;22.50;;;;;;;;1034955;28;279081684;-79
2022/04/14 02:10:00;;;;;;;;;24.00;24.00;;;;;;;;2;234069732;234069732;-79
2022/04/14 02:19:00;;;;;;;;;21.00;21.00;;;;;;;;2;279083390;279083390;-79
2022/04/14 02:27:43;;;;;;;;;17.50;17.50;;;;;;;;2;234073599;234073599;-79
2022/04/14 02:36:43;;;;;;;;;16.00;16.00;;;;;;;;2;279082405;279082405;-79
2022/04/14 02:45:27;;;;;;;;;30.50;29.00;;;;;;;;2;234068479;234068479;-79
2022/04/14 02:54:27;;;;;;;;;25.00;25.00;;;;;;;;2;279080382;279080382;-79
2022/04/14 03:03:10;;;;;;;;;35.50;33.00;;;;;;;;2;234070465;234070465;-79
2022/04/14 03:12:10;;;;;;;;;27.50;26.50;;;;;;;;2;279078576;279078576;-79
2022/04/14 03:20:52;;;;;;;;;25.00;25.00;;;;;;;;2;234067869;234067869;-79
2022/04/14 03:29:53;;;;;;;;;17.50;17.50;;;;;;;;2;279082231;279082231;-79
2022/04/14 03:38:35;;;;;;;;;32.00;29.50;;;;;;;;2;234071256;234071256;-79
2022/04/14 03:47:36;;;;;;;;;26.00;25.50;;;;;;;;2;279078776;279078776;-79
2022/04/14 03:56:18;;;;;;;;;35.00;32.50;;;;;;;;2;234069714;234069714;-79
2022/04/14 04:05:19;;;;;;;;;28.50;28.00;;;;;;;;2;279081589;279081589;-79
2022/04/14 04:14:01;;;;;;;;;26.00;25.50;;;;;;;;2;234069199;234069199;-79
2022/04/14 04:23:05;;;;;;;;;33.50;31.00;;;;;;;;2;279079477;279079477;-79
2022/04/14 04:31:48;;;;;;;;;40.50;34.00;;;;;;;;2;234068914;234068914;-79
2022/04/14 04:40:48;;;;;;;;;18.50;18.50;;;;;;;;2;279080300;279080300;-79
2022/04/14 04:49:31;;;;;;;;;30.00;29.00;;;;;;;;2;234069982;234069982;-79
2022/04/14 04:58:31;;;;;;;;;28.50;27.50;;;;;;;;2;279081886;279081886;-79
2022/04/14 05:07:14;;;;;;;;;23.00;23.00;;;;;;;;2;234069080;234069080;-79
2022/04/14 05:16:14;;;;;;;;;24.50;24.50;;;;;;;;2;279082542;279082542;-79
2022/04/14 05:24:57;;;;;;;;;27.50;26.50;;;;;;;;2;234071168;234071168;-77
2022/04/14 05:33:57;;;;;;;;;30.50;28.50;;;;;;;;2;279081866;279081866;-77
2022/04/14 05:37:26;;;;;;;;;10.50;10.50;;;;;;;;2;208993894;208993894;-77
2022/04/14 05:45:25;;;;;;;;;31.00;30.00;;;;;;;;162443;28;261078261;-77
2022/04/14 05:55:47;;;;;;;;;30.00;28.00;;;;;;;;173611;28;261078121;-78
2022/04/14 06:01:14;;;;;;;;;35.00;32.00;;;;;;;;2;288084050;288084050;-77
2022/04/14 06:07:36;;;;;;;;;36.00;33.50;;;;;;;;2;147004140;147004140;-77
2022/04/14 06:17:04;;;;;;;;;29.00;27.50;;;;;;;;2;288084095;288084095;-77
2022/04/14 06:25:22;;;;;;;;;37.00;34.00;;;;;;;;2;261077567;261077567;-76
2022/04/14 06:34:50;;;;;;;;;38.50;35.00;;;;;;;;2;288085410;288085410;-78
2022/04/14 06:43:05;;;;;;;;;37.00;34.00;;;;;;;;2;261075750;261075750;-78
2022/04/14 06:52:33;;;;;;;;;42.50;37.50;;;;;;;;2;288084876;288084876;-78
2022/04/14 07:00:48;;;;;;;;;29.50;28.00;;;;;;;;2;261075336;261075336;-78
2022/04/14 07:10:16;;;;;;;;;44.00;39.00;;;;;;;;2;288083795;288083795;-79
2022/04/14 07:18:31;;;;;;;;;44.50;39.00;;;;;;;;2;261076624;261076624;-78
2022/04/14 07:28:00;;;;;;;;;34.50;31.50;;;;;;;;2;288084147;288084147;-78
2022/04/14 07:36:19;;;;;;;;;45.50;39.50;;;;;;;;2;261076199;261076199;-78
2022/04/14 07:45:46;;;;;;;;;47.50;37.00;;;;;;;;2;288083222;288083222;-78
2022/04/14 07:54:02;;;;;;;;;36.50;34.00;;;;;;;;2;261074946;261074946;-78
2022/04/14 08:06:50;;;;;;;;;36.50;34.00;;;;;;;;2;288082834;288082834;-78
2022/04/14 08:15:06;;;;;;;;;27.50;27.00;;;;;;;;2;261076423;261076423;-78
2022/04/14 08:24:34;;;;;;;;;28.00;27.50;;;;;;;;2;288084606;288084606;-79
2022/04/14 08:32:50;;;;;;;;;27.50;27.50;;;;;;;;2;261078201;261078201;-78
2022/04/14 08:42:21;;;;;;;;;29.00;28.50;;;;;;;;2;288086742;288086742;-78
2022/04/14 08:50:37;;;;;;;;;42.00;37.00;;;;;;;;2;261079222;261079222;-78
2022/04/14 09:00:06;;;;;;;;;27.50;27.00;;;;;;;;2;288086629;288086629;-78
2022/04/14 09:08:22;;;;;;;;;40.50;36.00;;;;;;;;2;261077778;261077778;-79
2022/04/14 09:17:49;;;;;;;;;35.50;33.00;;;;;;;;2;288086132;288086132;-78
2022/04/14 09:26:14;;;;;;;;;30.00;29.00;;;;;;;;2;261077858;261077858;-77
2022/04/14 09:35:42;;;;;;;;;22.00;22.00;;;;;;;;2;288084254;288084254;-77
2022/04/14 09:43:58;;;;;;;;;27.00;26.00;;;;;;;;2;261075221;261075221;-77
2022/04/14 09:53:30;;;;;;;;;23.00;23.00;;;;;;;;2;288084010;288084010;-77
2022/04/14 10:01:46;;;;;;;;;18.00;16.00;;;;;;;;2;261078050;261078050;-77
2022/04/14 10:11:13;;;;;;;;;22.50;22.50;;;;;;;;2;288082561;288082561;-77
2022/04/14 10:19:30;;;;;;;;;22.50;22.50;;;;;;;;2;261075326;261075326;-77
2022/04/14 10:28:58;;;;;;;;;13.50;13.50;;;;;;;;2;288082861;288082861;-77
2022/04/14 10:37:21;;;;;;;;;26.50;14.50;;;;;;;;2;261073839;261073839;-77
2022/04/14 10:46:51;;;;;;;;;15.50;15.50;;;;;;;;2;288081049;288081049;-77
2022/04/14 10:55:07;;;;;;;;;15.50;15.50;;;;;;;;2;261077877;261077877;-77
2022/04/14 11:04:51;;;;;;;;;11.50;11.50;;;;;;;;2;288082376;288082376;-78
2022/04/14 11:13:07;;;;;;;;;9.00;9.00;;;;;;;;2;261075501;261075501;-78
2022/04/14 11:22:54;;;;;;;;;7.00;7.00;;;;;;;;2;288083728;288083728;-78
2022/04/14 11:31:13;;;;;;;;;10.00;10.00;;;;;;;;2;261078217;261078217;-78
2022/04/14 11:40:40;;;;;;;;;7.50;7.50;;;;;;;;2;288084933;288084933;-78
2022/04/14 11:48:58;;;;;;;;;8.00;8.00;;;;;;;;2;261076660;261076660;-77
2022/04/14 11:58:25;;;;;;;;;7.00;7.00;;;;;;;;2;288082626;288082626;-78
2022/04/14 12:06:50;;;;;;;;;8.00;8.00;;;;;;;;2;261076100;261076100;-78
2022/04/14 12:16:17;;;;;;;;;9.50;9.50;;;;;;;;2;288084784;288084784;-78
2022/04/14 12:24:33;;;;;;;;;6.00;6.00;;;;;;;;2;261077323;261077323;-78
2022/04/14 12:34:00;;;;;;;;;4.50;4.50;;;;;;;;2;288084774;288084774;-79
2022/04/14 12:42:16;;;;;;;;;8.00;8.00;;;;;;;;2;261077246;261077246;-78
2022/04/14 12:51:50;;;;;;;;;4.00;4.00;;;;;;;;2;288083889;288083889;-78
2022/04/14 13:00:14;;;;;;;;;2.50;2.50;;;;;;;;2;261077434;261077434;-79
2022/04/14 13:10:01;;;;;;;;;4.50;4.50;;;;;;;;2;288084254;288084254;-79
2022/04/14 13:18:17;;;;;;;;;2.00;2.00;;;;;;;;2;261077984;261077984;-78
2022/04/14 13:27:44;;;;;;;;;2.00;2.00;;;;;;;;2;288083215;288083215;-78
2022/04/14 13:35:59;;;;;;;;;2.50;2.50;;;;;;;;2;261075011;261075011;-79
2022/04/14 13:45:27;;;;;;;;;2.00;2.00;;;;;;;;2;288082752;288082752;-79
2022/04/14 13:53:42;;;;;;;;;3.50;3.50;;;;;;;;2;261074819;261074819;-79
2022/04/14 14:03:10;;;;;;;;;2.50;2.50;;;;;;;;2;288084615;288084615;-78
2022/04/14 14:11:26;;;;;;;;;3.50;3.50;;;;;;;;2;261078896;261078896;-78
2022/04/14 14:20:54;;;;;;;;;3.50;3.50;;;;;;;;2;288085670;288085670;-79
2022/04/14 14:29:10;;;;;;;;;5.00;5.00;;;;;;;;2;261077003;261077003;-79
2022/04/14 14:38:38;;;;;;;;;1.00;1.00;;;;;;;;2;288083880;288083880;-80
2022/04/14 14:46:57;;;;;;;;;4.00;4.00;;;;;;;;2;261078228;261078228;-80
2022/04/14 14:56:25;;;;;;;;;5.50;5.50;;;;;;;;2;288084035;288084035;-75
2022/04/14 15:04:40;;;;;;;;;3.50;3.50;;;;;;;;2;261077359;261077359;-79
2022/04/14 15:14:12;;;;;;;;;0.50;0.50;;;;;;;;2;288082944;288082944;-80
2022/04/14 15:22:27;;;;;;;;;1.50;1.50;;;;;;;;2;261077142;261077142;-80
2022/04/14 15:31:55;;;;;;;;;0.00;0.00;;;;;;;;2;288084302;288084302;-80
2022/04/14 15:40:10;;;;;;;;;3.50;3.50;;;;;;;;2;261077101;261077101;-80
2022/04/14 15:49:38;;;;;;;;;0.50;0.50;;;;;;;;2;288084560;288084560;-80
2022/04/14 15:57:53;;;;;;;;;1.50;1.50;;;;;;;;2;261075676;261075676;-80
2022/04/14 16:07:21;;;;;;;;;2.00;2.00;;;;;;;;2;288083190;288083190;-80
2022/04/14 16:15:37;;;;;;;;;1.00;1.00;;;;;;;;2;261074390;261074390;-80
2022/04/14 16:25:05;;;;;;;;;0.50;0.50;;;;;;;;2;288086362;288086362;-80
2022/04/14 16:33:21;;;;;;;;;1.00;1.00;;;;;;;;2;261074707;261074707;-80
2022/04/14 16:42:48;;;;;;;;;2.50;0.50;;;;;;;;2;288084661;288084661;-80
2022/04/14 16:51:04;;;;;;;;;2.50;2.50;;;;;;;;2;261076396;261076396;-80
2022/04/14 17:00:31;;;;;;;;;1.00;1.00;;;;;;;;2;288082447;288082447;-80
2022/04/14 17:08:47;;;;;;;;;1.00;1.00;;;;;;;;2;261075021;261075021;-77
2022/04/14 17:18:14;;;;;;;;;0.50;0.50;;;;;;;;2;288083546;288083546;-79
2022/04/14 17:26:30;;;;;;;;;1.00;1.00;;;;;;;;2;261074836;261074836;-79
2022/04/14 17:35:57;;;;;;;;;0.00;0.00;;;;;;;;2;288089362;288089362;-79
2022/04/14 17:44:13;;;;;;;;;0.00;0.00;;;;;;;;2;261076629;261076629;-78
2022/04/14 17:53:41;;;;;;;;;1.50;1.50;;;;;;;;2;288083686;288083686;-79
2022/04/14 18:01:56;;;;;;;;;1.50;1.50;;;;;;;;2;261078828;261078828;-82
2022/04/14 18:11:29;;;;;;;;;2.00;2.00;;;;;;;;2;288084881;288084881;-81
2022/04/14 18:19:45;;;;;;;;;2.00;2.00;;;;;;;;2;261076213;261076213;-77
2022/04/14 18:29:12;;;;;;;;;1.50;1.50;;;;;;;;2;288084687;288084687;-82
2022/04/14 18:37:28;;;;;;;;;2.00;2.00;;;;;;;;2;261077307;261077307;-82
2022/04/14 18:46:55;;;;;;;;;4.00;4.00;;;;;;;;2;288086020;288086020;-82
2022/04/14 18:55:11;;;;;;;;;2.00;2.00;;;;;;;;2;261078700;261078700;-82
2022/04/14 19:04:39;;;;;;;;;2.50;2.50;;;;;;;;2;288085706;288085706;-82
2022/04/14 19:12:54;;;;;;;;;2.50;2.50;;;;;;;;2;261076593;261076593;-82
2022/04/14 19:22:22;;;;;;;;;3.50;3.50;;;;;;;;2;288084872;288084872;-82
2022/04/14 19:30:38;;;;;;;;;4.50;4.50;;;;;;;;2;261077274;261077274;-82
2022/04/14 19:40:07;;;;;;;;;2.50;2.50;;;;;;;;2;288084455;288084455;-81
2022/04/14 19:48:22;;;;;;;;;4.50;4.50;;;;;;;;2;261078110;261078110;-80
2022/04/14 19:57:50;;;;;;;;;7.00;7.00;;;;;;;;2;288081092;288081092;-81
2022/04/14 20:06:05;;;;;;;;;12.00;12.00;;;;;;;;2;261079725;261079725;-82
2022/04/14 20:15:33;;;;;;;;;6.50;6.50;;;;;;;;2;288082807;288082807;-82
2022/04/14 20:23:49;;;;;;;;;13.50;13.50;;;;;;;;2;261077132;261077132;-82
2022/04/14 20:33:16;;;;;;;;;5.00;5.00;;;;;;;;2;288083235;288083235;-81
2022/04/14 20:41:33;;;;;;;;;12.50;12.50;;;;;;;;2;261076472;261076472;-81
2022/04/14 20:51:00;;;;;;;;;11.00;11.00;;;;;;;;2;288082781;288082781;-82
2022/04/14 20:59:16;;;;;;;;;7.50;7.50;;;;;;;;2;261077347;261077347;-81
2022/04/14 21:08:43;;;;;;;;;7.50;7.50;;;;;;;;2;288081390;288081390;-81
2022/04/14 21:16:59;;;;;;;;;3.50;3.50;;;;;;;;2;261074036;261074036;-81
2022/04/14 21:26:26;;;;;;;;;4.50;4.50;;;;;;;;2;288086743;288086743;-81
2022/04/14 21:34:42;;;;;;;;;4.50;4.50;;;;;;;;2;261075989;261075989;-81
2022/04/14 21:44:09;;;;;;;;;2.50;2.50;;;;;;;;2;288082076;288082076;-78
2022/04/14 21:52:25;;;;;;;;;7.50;7.50;;;;;;;;2;261075314;261075314;-79
2022/04/14 22:01:53;;;;;;;;;5.00;5.00;;;;;;;;2;288084770;288084770;-79
2022/04/14 22:10:09;;;;;;;;;12.00;12.00;;;;;;;;2;261075979;261075979;-78
2022/04/14 22:19:37;;;;;;;;;7.50;7.50;;;;;;;;2;288084719;288084719;-79
2022/04/14 22:27:52;;;;;;;;;11.00;11.00;;;;;;;;2;261076214;261076214;-80
2022/04/14 22:37:20;;;;;;;;;5.00;5.00;;;;;;;;2;288088052;288088052;-79
2022/04/14 22:45:35;;;;;;;;;11.00;11.00;;;;;;;;2;261076762;261076762;-79
2022/04/14 22:55:04;;;;;;;;;7.50;7.50;;;;;;;;2;288085130;288085130;-79
2022/04/14 23:03:19;;;;;;;;;12.00;12.00;;;;;;;;2;261077825;261077825;-79
2022/04/14 23:12:47;;;;;;;;;8.50;8.50;;;;;;;;2;288084100;288084100;-78
2022/04/14 23:21:03;;;;;;;;;9.00;9.00;;;;;;;;2;261077274;261077274;-79
2022/04/14 23:30:30;;;;;;;;;7.00;7.00;;;;;;;;2;288085340;288085340;-79
2022/04/14 23:38:46;;;;;;;;;10.50;10.50;;;;;;;;2;261076921;261076921;-79
2022/04/14 23:48:15;;;;;;;;;15.50;15.50;;;;;;;;2;288084865;288084865;-78
2022/04/14 23:56:31;;;;;;;;;6.00;6.00;;;;;;;;2;261076040;261076040;-78
